createdAt,value
2018-09-01T00:00:36.082Z,33.00
2018-09-01T00:03:04.951Z,25.75
2018-09-01T00:05:33.274Z,33.25
2018-09-01T00:08:01.586Z,32.50
2018-09-01T00:10:29.882Z,39.75
2018-09-01T00:12:59.230Z,29.50
2018-09-01T00:15:27.513Z,28.75
2018-09-01T00:17:55.826Z,32.25
2018-09-01T00:20:25.329Z,26.75
2018-09-01T00:22:53.663Z,30.75
2018-09-01T00:25:22.446Z,29.75
2018-09-01T00:27:51.631Z,32.25
2018-09-01T00:30:19.945Z,31.00
2018-09-01T00:32:49.095Z,34.75
2018-09-01T00:35:17.412Z,34.25
2018-09-01T00:37:50.976Z,30.75
2018-09-01T00:40:19.298Z,27.75
2018-09-01T00:42:47.618Z,39.00
2018-09-01T00:45:16.028Z,36.50
2018-09-01T00:47:55.827Z,33.00
2018-09-01T00:50:25.815Z,31.25
2018-09-01T00:52:54.104Z,35.00
2018-09-01T00:55:28.615Z,32.00
2018-09-01T00:57:57.669Z,34.75
2018-09-01T01:00:26.072Z,27.00
2018-09-01T01:02:54.371Z,31.25
2018-09-01T01:05:23.320Z,32.25
2018-09-01T01:07:51.659Z,39.00
2018-09-01T01:10:20.999Z,34.50
2018-09-01T01:12:49.764Z,32.75
2018-09-01T01:15:18.442Z,33.75
2018-09-01T01:17:46.736Z,33.25
2018-09-01T01:20:15.075Z,30.00
2018-09-01T01:22:43.414Z,34.50
2018-09-01T01:25:11.711Z,30.50
2018-09-01T01:27:40.029Z,35.75
2018-09-01T01:30:08.397Z,36.50
2018-09-01T01:32:37.802Z,37.25
2018-09-01T01:35:06.191Z,35.25
2018-09-01T01:37:36.483Z,31.50
2018-09-01T01:40:05.258Z,26.00
2018-09-01T01:42:35.266Z,26.50
2018-09-01T01:45:03.586Z,36.25
2018-09-01T01:47:32.088Z,34.25
2018-09-01T01:50:00.383Z,30.50
2018-09-01T01:52:28.764Z,32.00
2018-09-01T01:54:57.139Z,32.75
2018-09-01T01:57:25.434Z,38.75
2018-09-01T01:59:53.715Z,29.50
2018-09-01T02:02:22.726Z,37.75
2018-09-01T02:04:51.908Z,35.25
2018-09-01T02:07:20.707Z,32.00
2018-09-01T02:09:50.033Z,38.25
2018-09-01T02:12:18.353Z,40.00
2018-09-01T02:14:46.662Z,36.00
2018-09-01T02:17:16.197Z,33.00
2018-09-01T02:19:46.942Z,31.00
2018-09-01T02:22:15.736Z,30.75
2018-09-01T02:24:44.054Z,33.50
2018-09-01T02:27:13.262Z,37.50
2018-09-01T02:29:41.559Z,27.75
2018-09-01T02:32:09.878Z,38.00
2018-09-01T02:34:38.191Z,34.25
2018-09-01T02:37:06.505Z,37.50
2018-09-01T02:39:35.858Z,29.75
2018-09-01T02:42:04.148Z,37.50
2018-09-01T02:44:32.428Z,32.75
2018-09-01T02:47:00.757Z,42.25
2018-09-01T02:49:29.054Z,27.00
2018-09-01T02:51:57.633Z,30.00
2018-09-01T02:54:26.598Z,33.00
2018-09-01T02:56:54.913Z,34.50
2018-09-01T02:59:25.342Z,30.00
2018-09-01T03:01:53.674Z,26.75
2018-09-01T03:04:21.988Z,27.75
2018-09-01T03:06:52.636Z,28.75
2018-09-01T03:09:21.550Z,37.25
2018-09-01T03:11:50.223Z,33.00
2018-09-01T03:14:18.596Z,37.50
2018-09-01T03:16:46.907Z,35.50
2018-09-01T03:19:15.205Z,31.50
2018-09-01T03:21:43.487Z,31.00
2018-09-01T03:24:11.814Z,31.25
2018-09-01T03:26:40.100Z,26.75
2018-09-01T03:29:08.401Z,26.50
2018-09-01T03:31:37.631Z,31.25
2018-09-01T03:34:06.030Z,30.25
2018-09-01T03:36:34.367Z,26.00
2018-09-01T03:39:02.746Z,29.75
2018-09-01T03:41:31.051Z,26.00
2018-09-01T03:44:00.346Z,28.75
2018-09-01T03:46:28.988Z,29.50
2018-09-01T03:48:59.820Z,26.00
2018-09-01T03:51:28.678Z,29.50
2018-09-01T03:53:56.962Z,30.25
2018-09-01T03:56:25.325Z,33.75
2018-09-01T03:58:53.639Z,33.75
2018-09-01T04:01:21.947Z,34.00
2018-09-01T04:03:50.415Z,33.25
2018-09-01T04:06:19.555Z,25.25
2018-09-01T04:08:47.850Z,35.50
2018-09-01T04:11:16.155Z,32.25
2018-09-01T04:13:44.485Z,33.25
2018-09-01T04:16:12.836Z,27.50
2018-09-01T04:18:41.125Z,33.00
2018-09-01T04:21:09.438Z,28.50
2018-09-01T04:23:37.731Z,34.00
2018-09-01T04:26:06.067Z,25.25
2018-09-01T04:28:34.359Z,33.00
2018-09-01T04:31:02.655Z,32.25
2018-09-01T04:33:30.959Z,28.75
2018-09-01T04:35:59.283Z,32.75
2018-09-01T04:38:27.574Z,34.25
2018-09-01T04:40:55.855Z,25.75
2018-09-01T04:43:24.167Z,29.00
2018-09-01T04:45:52.480Z,29.00
2018-09-01T04:48:20.842Z,33.50
2018-09-01T04:50:49.160Z,31.75
2018-09-01T04:53:17.447Z,32.50
2018-09-01T04:55:45.766Z,32.50
2018-09-01T04:58:14.088Z,40.00
2018-09-01T05:00:42.513Z,39.75
2018-09-01T05:03:10.741Z,34.00
2018-09-01T05:05:40.958Z,33.00
2018-09-01T05:08:09.302Z,35.25
2018-09-01T05:10:38.222Z,31.25
2018-09-01T05:13:06.523Z,36.75
2018-09-01T05:15:34.891Z,34.75
2018-09-01T05:18:03.234Z,35.25
2018-09-01T05:20:31.577Z,28.00
2018-09-01T05:22:59.857Z,32.25
2018-09-01T05:25:29.107Z,32.75
2018-09-01T05:27:57.486Z,32.00
2018-09-01T05:30:25.780Z,26.25
2018-09-01T05:32:54.067Z,28.75
2018-09-01T05:35:22.341Z,27.00
2018-09-01T05:37:50.664Z,33.50
2018-09-01T05:40:18.931Z,36.00
2018-09-01T05:42:47.251Z,31.25
2018-09-01T05:45:15.547Z,31.25
2018-09-01T05:47:43.878Z,29.25
2018-09-01T05:50:12.894Z,28.75
2018-09-01T05:52:41.892Z,27.75
2018-09-01T05:55:10.176Z,33.25
2018-09-01T05:57:38.504Z,31.00
2018-09-01T06:00:09.256Z,28.75
2018-09-01T06:02:38.561Z,32.00
2018-09-01T06:05:07.976Z,28.75
2018-09-01T06:07:36.643Z,26.25
2018-09-01T06:10:06.635Z,33.00
2018-09-01T06:12:35.802Z,29.75
2018-09-01T06:15:04.407Z,29.50
2018-09-01T06:17:32.805Z,35.00
2018-09-01T06:20:01.127Z,29.00
2018-09-01T06:22:29.418Z,27.75
2018-09-01T06:24:57.794Z,31.00
2018-09-01T06:27:33.740Z,24.75
2018-09-01T06:30:07.102Z,35.75
2018-09-01T06:32:36.056Z,30.00
2018-09-01T06:35:05.452Z,30.50
2018-09-01T06:37:34.074Z,26.25
2018-09-01T06:42:53.659Z,28.25
2018-09-01T06:45:22.250Z,29.50
2018-09-01T06:47:51.084Z,27.75
2018-09-01T06:50:20.875Z,24.00
2018-09-01T06:52:49.319Z,23.75
2018-09-01T06:55:20.567Z,23.00
2018-09-01T06:57:51.385Z,24.00
2018-09-01T07:00:25.748Z,18.00
2018-09-01T07:02:57.028Z,22.00
2018-09-01T07:05:25.903Z,22.25
2018-09-01T07:07:54.210Z,21.50
2018-09-01T07:10:23.355Z,25.50
2018-09-01T07:12:52.174Z,28.25
2018-09-01T07:15:20.512Z,28.25
2018-09-01T07:17:50.595Z,27.50
2018-09-01T07:20:19.116Z,24.75
2018-09-01T07:22:49.439Z,26.25
2018-09-01T07:25:17.798Z,28.00
2018-09-01T07:27:46.196Z,23.00
2018-09-01T07:30:14.767Z,20.75
2018-09-01T07:32:43.550Z,18.25
2018-09-01T07:35:11.858Z,22.00
2018-09-01T07:37:40.205Z,21.50
2018-09-01T07:40:08.495Z,17.50
2018-09-01T07:42:36.788Z,18.50
2018-09-01T07:45:06.462Z,17.25
2018-09-01T07:47:35.465Z,19.75
2018-09-01T07:50:03.916Z,17.25
2018-09-01T07:52:32.173Z,15.75
2018-09-01T07:55:00.710Z,15.25
2018-09-01T07:57:29.094Z,19.00
2018-09-01T07:59:57.479Z,15.00
2018-09-01T08:02:25.818Z,16.50
2018-09-01T08:04:54.079Z,14.25
2018-09-01T08:07:22.427Z,16.00
2018-09-01T08:09:50.721Z,15.25
2018-09-01T08:12:19.079Z,16.00
2018-09-01T08:14:47.402Z,14.50
2018-09-01T08:17:16.833Z,15.75
2018-09-01T08:19:45.177Z,18.75
2018-09-01T08:22:13.694Z,14.25
2018-09-01T08:24:41.973Z,14.00
2018-09-01T08:27:10.306Z,12.25
2018-09-01T08:29:42.310Z,16.00
2018-09-01T08:32:10.589Z,14.00
2018-09-01T08:34:39.823Z,14.00
2018-09-01T08:37:08.116Z,18.00
2018-09-01T08:39:36.403Z,14.50
2018-09-01T08:42:05.488Z,16.25
2018-09-01T08:44:33.780Z,11.50
2018-09-01T08:47:02.102Z,14.00
2018-09-01T08:49:30.395Z,12.75
2018-09-01T08:51:58.700Z,13.00
2018-09-01T08:54:27.545Z,12.00
2018-09-01T08:56:55.871Z,14.25
2018-09-01T08:59:24.172Z,14.00
2018-09-01T09:01:52.642Z,14.00
2018-09-01T09:04:20.866Z,14.00
2018-09-01T09:06:49.208Z,13.75
2018-09-01T09:09:17.475Z,16.50
2018-09-01T09:11:45.773Z,17.00
2018-09-01T09:14:14.131Z,14.00
2018-09-01T09:16:42.469Z,16.00
2018-09-01T09:19:10.779Z,12.00
2018-09-01T09:21:39.064Z,14.50
2018-09-01T09:24:07.531Z,18.50
2018-09-01T09:26:35.822Z,13.75
2018-09-01T09:29:04.843Z,10.75
2018-09-01T09:31:33.116Z,13.75
2018-09-01T09:34:01.347Z,11.25
2018-09-01T09:36:29.690Z,11.75
2018-09-01T09:38:57.961Z,15.00
2018-09-01T09:41:26.250Z,12.00
2018-09-01T09:43:54.559Z,24.50
2018-09-01T09:46:22.839Z,34.75
2018-09-01T09:48:51.130Z,13.75
2018-09-01T09:51:19.395Z,11.75
2018-09-01T09:53:47.746Z,11.00
2018-09-01T09:56:16.044Z,11.00
2018-09-01T09:58:44.921Z,11.00
2018-09-01T10:01:18.512Z,15.00
2018-09-01T10:03:46.806Z,10.50
2018-09-01T10:06:15.728Z,10.75
2018-09-01T10:08:44.018Z,13.25
2018-09-01T10:11:13.346Z,11.00
2018-09-01T10:13:41.665Z,12.00
2018-09-01T10:16:10.037Z,10.50
2018-09-01T10:18:38.323Z,11.50
2018-09-01T10:21:06.603Z,11.75
2018-09-01T10:23:34.870Z,13.00
2018-09-01T10:26:03.171Z,12.50
2018-09-01T10:28:31.501Z,12.75
2018-09-01T10:30:59.790Z,11.25
2018-09-01T10:33:29.226Z,12.00
2018-09-01T10:35:57.633Z,9.50
2018-09-01T10:38:25.936Z,10.75
2018-09-01T10:40:54.207Z,11.50
2018-09-01T10:43:22.477Z,10.75
2018-09-01T10:45:51.163Z,11.50
2018-09-01T10:48:19.474Z,13.00
2018-09-01T10:50:47.731Z,12.00
2018-09-01T10:53:16.015Z,13.00
2018-09-01T10:55:44.308Z,10.75
2018-09-01T10:58:12.791Z,17.00
2018-09-01T11:00:41.100Z,15.25
2018-09-01T11:03:09.408Z,14.75
2018-09-01T11:05:37.739Z,12.75
2018-09-01T11:08:06.581Z,15.75
2018-09-01T11:10:34.863Z,14.00
2018-09-01T11:13:03.168Z,15.75
2018-09-01T11:15:31.584Z,13.50
2018-09-01T11:17:59.859Z,17.25
2018-09-01T11:20:28.180Z,13.75
2018-09-01T11:22:56.542Z,14.75
2018-09-01T11:25:24.838Z,13.75
2018-09-01T11:27:53.144Z,11.00
2018-09-01T11:30:21.432Z,13.00
2018-09-01T11:32:49.696Z,12.50
2018-09-01T11:35:17.991Z,16.50
2018-09-01T11:37:46.279Z,12.75
2018-09-01T11:40:15.166Z,15.25
2018-09-01T11:42:45.360Z,14.00
2018-09-01T11:45:13.560Z,16.00
2018-09-01T11:47:41.833Z,15.75
2018-09-01T11:50:10.121Z,16.00
2018-09-01T11:52:38.385Z,15.50
2018-09-01T11:55:06.955Z,12.25
2018-09-01T11:57:37.070Z,11.75
2018-09-01T12:00:05.429Z,11.00
2018-09-01T12:02:34.053Z,16.50
2018-09-01T12:05:02.313Z,14.75
2018-09-01T12:07:30.619Z,13.75
2018-09-01T12:09:59.479Z,15.00
2018-09-01T12:12:27.786Z,13.50
2018-09-01T12:14:56.110Z,14.50
2018-09-01T12:17:24.433Z,12.25
2018-09-01T12:19:53.804Z,12.00
2018-09-01T12:22:22.128Z,12.00
2018-09-01T12:24:50.436Z,14.50
2018-09-01T12:27:18.750Z,14.50
2018-09-01T12:29:47.036Z,13.00
2018-09-01T12:32:15.346Z,11.00
2018-09-01T12:34:43.615Z,13.00
2018-09-01T12:37:11.927Z,15.00
2018-09-01T12:39:40.234Z,12.00
2018-09-01T12:42:09.547Z,12.50
2018-09-01T12:44:37.755Z,12.25
2018-09-01T12:47:06.736Z,11.00
2018-09-01T12:49:35.625Z,12.00
2018-09-01T12:52:04.076Z,13.75
2018-09-01T12:54:33.698Z,15.00
2018-09-01T12:57:01.978Z,12.50
2018-09-01T12:59:30.283Z,12.00
2018-09-01T13:02:00.310Z,13.50
2018-09-01T13:04:28.735Z,17.00
2018-09-01T13:06:58.027Z,13.75
2018-09-01T13:09:29.629Z,14.00
2018-09-01T13:11:57.908Z,17.25
2018-09-01T13:14:28.372Z,15.75
2018-09-01T13:16:57.106Z,13.25
2018-09-01T13:19:25.475Z,12.50
2018-09-01T13:21:53.667Z,13.50
2018-09-01T13:24:21.980Z,13.00
2018-09-01T13:26:50.284Z,13.00
2018-09-01T13:29:18.599Z,14.00
2018-09-01T13:31:46.875Z,12.00
2018-09-01T13:34:15.217Z,12.50
2018-09-01T13:36:44.132Z,12.25
2018-09-01T13:39:12.427Z,12.75
2018-09-01T13:41:41.590Z,11.50
2018-09-01T13:44:10.824Z,12.25
2018-09-01T13:46:39.099Z,12.25
2018-09-01T13:49:07.424Z,12.00
2018-09-01T13:51:35.732Z,13.75
2018-09-01T13:54:04.045Z,12.00
2018-09-01T13:56:32.362Z,12.00
2018-09-01T13:59:02.159Z,11.75
2018-09-01T14:01:32.081Z,13.75
2018-09-01T14:04:01.587Z,13.25
2018-09-01T14:06:30.299Z,14.00
2018-09-01T14:08:58.587Z,16.00
2018-09-01T14:11:26.895Z,14.75
2018-09-01T14:13:55.212Z,12.00
2018-09-01T14:16:25.120Z,15.75
2018-09-01T14:18:53.436Z,12.25
2018-09-01T14:21:21.978Z,13.00
2018-09-01T14:23:50.405Z,12.75
2018-09-01T14:26:18.739Z,14.00
2018-09-01T14:28:47.025Z,18.00
2018-09-01T14:31:16.022Z,13.50
2018-09-01T14:33:44.306Z,13.75
2018-09-01T14:36:12.635Z,13.25
2018-09-01T14:38:40.894Z,9.75
2018-09-01T14:41:09.220Z,10.00
2018-09-01T14:43:37.503Z,11.00
2018-09-01T14:46:05.933Z,10.50
2018-09-01T14:48:34.218Z,10.00
2018-09-01T14:51:03.388Z,13.00
2018-09-01T14:53:33.875Z,11.75
2018-09-01T14:56:04.082Z,12.75
2018-09-01T14:58:32.883Z,10.00
2018-09-01T15:01:02.627Z,14.00
2018-09-01T15:03:31.393Z,16.50
2018-09-01T15:05:59.743Z,12.00
2018-09-01T15:08:28.615Z,12.00
2018-09-01T15:10:56.928Z,12.50
2018-09-01T15:13:25.784Z,11.00
2018-09-01T15:15:54.843Z,12.25
2018-09-01T15:18:23.138Z,12.25
2018-09-01T15:20:51.836Z,13.50
2018-09-01T15:23:20.111Z,12.00
2018-09-01T15:25:48.351Z,9.75
2018-09-01T15:28:16.710Z,10.00
2018-09-01T15:30:45.303Z,12.75
2018-09-01T15:33:13.703Z,11.00
2018-09-01T15:35:44.181Z,12.00
2018-09-01T15:38:12.590Z,14.25
2018-09-01T15:40:40.902Z,14.75
2018-09-01T15:43:10.278Z,10.50
2018-09-01T15:45:38.617Z,11.75
2018-09-01T15:48:07.817Z,12.00
2018-09-01T15:50:38.354Z,10.75
2018-09-01T15:53:06.644Z,11.00
2018-09-01T15:55:35.923Z,11.75
2018-09-01T15:58:05.259Z,10.00
2018-09-01T16:00:34.868Z,10.00
2018-09-01T16:03:03.192Z,11.00
2018-09-01T16:05:31.534Z,12.00
2018-09-01T16:07:59.855Z,11.00
2018-09-01T16:10:28.139Z,12.25
2018-09-01T16:12:56.469Z,11.50
2018-09-01T16:15:25.715Z,10.50
2018-09-01T16:17:54.194Z,12.50
2018-09-01T16:20:23.452Z,10.00
2018-09-01T16:22:52.764Z,12.75
2018-09-01T16:25:21.278Z,13.00
2018-09-01T16:27:51.096Z,14.00
2018-09-01T16:30:19.675Z,12.50
2018-09-01T16:32:48.466Z,11.75
2018-09-01T16:35:16.788Z,13.00
2018-09-01T16:37:45.188Z,11.00
2018-09-01T16:40:14.037Z,10.00
2018-09-01T16:42:43.732Z,13.00
2018-09-01T16:45:12.071Z,12.25
2018-09-01T16:47:40.344Z,10.25
2018-09-01T16:50:08.759Z,12.50
2018-09-01T16:52:37.895Z,9.75
2018-09-01T16:55:06.402Z,9.00
2018-09-01T16:57:34.677Z,10.25
2018-09-01T17:00:03.793Z,10.00
2018-09-01T17:02:32.762Z,10.25
2018-09-01T17:05:01.280Z,11.00
2018-09-01T17:07:30.212Z,9.50
2018-09-01T17:09:58.541Z,10.50
2018-09-01T17:12:27.030Z,11.00
2018-09-01T17:14:55.791Z,11.00
2018-09-01T17:17:25.214Z,10.50
2018-09-01T17:20:02.939Z,12.50
2018-09-01T17:22:32.819Z,11.50
2018-09-01T17:25:01.369Z,10.50
2018-09-01T17:27:30.447Z,10.50
2018-09-01T17:29:59.699Z,10.25
2018-09-01T17:32:28.038Z,10.00
2018-09-01T17:34:56.364Z,10.50
2018-09-01T17:37:25.801Z,11.75
2018-09-01T17:39:55.001Z,13.00
2018-09-01T17:42:23.339Z,11.00
2018-09-01T17:44:52.531Z,11.50
2018-09-01T17:47:20.854Z,9.75
2018-09-01T17:49:49.193Z,9.75
2018-09-01T17:52:17.487Z,12.00
2018-09-01T17:54:46.002Z,12.75
2018-09-01T17:57:14.579Z,10.00
2018-09-01T17:59:42.938Z,9.75
2018-09-01T18:02:11.727Z,12.00
2018-09-01T18:04:39.994Z,12.00
2018-09-01T18:07:08.328Z,12.00
2018-09-01T18:09:37.332Z,11.25
2018-09-01T18:12:06.313Z,12.00
2018-09-01T18:14:34.788Z,10.75
2018-09-01T18:17:04.090Z,10.50
2018-09-01T18:19:32.447Z,9.00
2018-09-01T18:22:02.627Z,9.00
2018-09-01T18:24:32.081Z,12.50
2018-09-01T18:27:01.961Z,12.00
2018-09-01T18:29:30.620Z,11.25
2018-09-01T18:31:59.776Z,10.50
2018-09-01T18:34:28.108Z,12.00
2018-09-01T18:36:56.379Z,14.75
2018-09-01T18:39:24.715Z,12.00
2018-09-01T18:41:53.034Z,11.00
2018-09-01T18:44:22.032Z,11.25
2018-09-01T18:46:50.405Z,13.00
2018-09-01T18:49:18.686Z,12.00
2018-09-01T18:51:46.981Z,14.00
2018-09-01T18:54:15.538Z,17.00
2018-09-01T18:56:47.343Z,16.25
2018-09-01T18:59:16.863Z,20.75
2018-09-01T19:01:45.158Z,20.25
2018-09-01T19:04:13.492Z,19.50
2018-09-01T19:06:41.815Z,23.25
2018-09-01T19:09:10.136Z,18.25
2018-09-01T19:11:38.487Z,16.50
2018-09-01T19:14:06.902Z,15.25
2018-09-01T19:16:35.162Z,17.00
2018-09-01T19:19:03.447Z,14.00
2018-09-01T19:21:31.748Z,19.00
2018-09-01T19:24:00.048Z,19.50
2018-09-01T19:26:28.394Z,22.75
2018-09-01T19:28:57.548Z,23.75
2018-09-01T19:31:25.859Z,25.50
2018-09-01T19:33:54.179Z,30.00
2018-09-01T19:36:22.465Z,22.00
2018-09-01T19:38:50.816Z,21.00
2018-09-01T19:41:19.892Z,26.75
2018-09-01T19:43:48.174Z,34.25
2018-09-01T19:46:17.400Z,30.50
2018-09-01T19:48:46.286Z,32.50
2018-09-01T19:51:16.747Z,36.25
2018-09-01T19:53:45.969Z,28.50
2018-09-01T19:56:14.279Z,33.00
2018-09-01T19:58:42.555Z,22.50
2018-09-01T20:01:12.428Z,26.00
2018-09-01T20:03:41.451Z,27.75
2018-09-01T20:06:10.828Z,27.50
2018-09-01T20:08:39.131Z,27.00
2018-09-01T20:11:07.450Z,23.75
2018-09-01T20:13:35.778Z,21.25
2018-09-01T20:16:04.052Z,22.50
2018-09-01T20:18:32.562Z,17.00
2018-09-01T20:21:01.929Z,16.50
2018-09-01T20:23:30.209Z,18.00
2018-09-01T20:25:58.521Z,16.75
2018-09-01T20:28:27.793Z,19.75
2018-09-01T20:30:56.099Z,20.50
2018-09-01T20:33:24.410Z,17.75
2018-09-01T20:35:56.972Z,20.25
2018-09-01T20:38:26.626Z,23.50
2018-09-01T20:40:55.679Z,19.75
2018-09-01T20:43:25.927Z,22.00
2018-09-01T20:45:54.282Z,28.00
2018-09-01T20:48:22.501Z,19.00
2018-09-01T20:50:50.827Z,25.75
2018-09-01T20:53:19.831Z,17.75
2018-09-01T20:55:48.095Z,20.50
2018-09-01T20:58:17.315Z,22.50
2018-09-01T21:00:45.617Z,21.75
2018-09-01T21:03:13.981Z,24.50
2018-09-01T21:05:42.247Z,26.00
2018-09-01T21:08:10.541Z,25.00
2018-09-01T21:10:38.879Z,26.00
2018-09-01T21:13:08.107Z,20.75
2018-09-01T21:15:36.394Z,23.75
2018-09-01T21:18:04.793Z,23.50
2018-09-01T21:20:33.832Z,30.00
2018-09-01T21:23:02.734Z,29.25
2018-09-01T21:25:32.847Z,28.00
2018-09-01T21:28:01.130Z,30.25
2018-09-01T21:30:29.428Z,25.25
2018-09-01T21:32:57.729Z,27.75
2018-09-01T21:35:26.058Z,26.75
2018-09-01T21:37:55.167Z,27.50
2018-09-01T21:40:24.166Z,31.75
2018-09-01T21:42:52.456Z,32.00
2018-09-01T21:45:20.750Z,32.25
2018-09-01T21:47:49.084Z,30.75
2018-09-01T21:50:18.764Z,30.00
2018-09-01T21:52:47.985Z,29.50
2018-09-01T21:55:16.924Z,34.50
2018-09-01T21:57:45.228Z,35.00
2018-09-01T22:00:13.518Z,34.75
2018-09-01T22:02:41.808Z,35.00
2018-09-01T22:05:17.143Z,41.25
2018-09-01T22:07:45.611Z,41.75
2018-09-01T22:10:15.480Z,40.75
2018-09-01T22:12:43.795Z,39.25
2018-09-01T22:15:12.080Z,45.25
2018-09-01T22:17:41.403Z,35.75
2018-09-01T22:20:10.390Z,39.75
2018-09-01T22:22:38.664Z,34.50
2018-09-01T22:25:07.007Z,42.00
2018-09-01T22:27:35.327Z,35.00
2018-09-01T22:30:04.469Z,42.25
2018-09-01T22:32:32.795Z,37.25
2018-09-01T22:35:01.159Z,41.50
2018-09-01T22:37:29.525Z,42.75
2018-09-01T22:39:57.810Z,40.25
2018-09-01T22:42:26.163Z,45.50
2018-09-01T22:44:54.407Z,38.75
2018-09-01T22:47:26.068Z,34.75
2018-09-01T22:49:54.378Z,41.50
2018-09-01T22:52:26.448Z,36.25
2018-09-01T22:54:54.771Z,37.00
2018-09-01T22:57:23.068Z,48.25
2018-09-01T22:59:51.944Z,38.50
2018-09-01T23:02:21.218Z,34.00
2018-09-01T23:04:50.432Z,34.75
2018-09-01T23:07:18.709Z,33.25
2018-09-01T23:09:47.975Z,36.75
2018-09-01T23:12:16.338Z,34.75
2018-09-01T23:14:44.647Z,36.75
2018-09-01T23:17:13.587Z,37.75
2018-09-01T23:19:41.898Z,35.50
2018-09-01T23:22:10.196Z,30.00
2018-09-01T23:24:38.468Z,32.00
2018-09-01T23:27:06.959Z,31.00
2018-09-01T23:29:36.178Z,34.25
2018-09-01T23:32:04.491Z,29.75
2018-09-01T23:34:32.791Z,30.50
2018-09-01T23:37:04.004Z,24.00
2018-09-01T23:39:32.296Z,27.25
2018-09-01T23:42:00.581Z,32.25
2018-09-01T23:44:28.900Z,35.50
2018-09-01T23:46:57.172Z,33.00
2018-09-01T23:49:26.400Z,37.75
2018-09-01T23:51:54.698Z,30.50
2018-09-01T23:54:23.011Z,31.75
2018-09-01T23:56:51.291Z,38.00
2018-09-01T23:59:19.604Z,35.25
